Terminal Aerodrome Forecast
Issued by NWS

Home | Current Version | Previous Version | Text Only | Print | Product List | Glossary On
Versions: 1 2 3 4 5 6 7 8 9 10 11 12 13 14 15 16 17 18 19 20 21 22 23 24 25 26 27 28 29 30 31 32 33 34 35 36 37 38 39 40 41 42 43 44 45 46 47 48 49 50
743
FTUS44 KHGX 272321
TAFIAH
TAF
KIAH 272321Z 2800/2906 14007KT P6SM SCT020 BKN090
     FM280900 VRB03KT P6SM SCT020 BKN250
     FM281600 19007KT P6SM VCSH BKN035
     FM281900 16008KT P6SM VCTS BKN050CB
     FM290100 15005KT P6SM BKN250=

USA.gov is the U.S. government's official web portal to all federal, state and local government web resources and services.